sensor_id;sensor_type;location;lat;lon;timestamp;pressure;altitude;pressure_sealevel;temperature;humidity
59435;BME280;45241;49.768;8.636;2023-03-25T00:00:15;99346.81;;;12.99;75.29
59435;BME280;45241;49.768;8.636;2023-03-25T00:02:44;99351.31;;;13.16;74.77
59435;BME280;45241;49.768;8.636;2023-03-25T00:05:10;99349.53;;;13.10;74.36
59435;BME280;45241;49.768;8.636;2023-03-25T00:07:39;99373.13;;;12.97;74.71
59435;BME280;45241;49.768;8.636;2023-03-25T00:10:05;99377.69;;;12.59;78.02
59435;BME280;45241;49.768;8.636;2023-03-25T00:12:30;99400.00;;;12.23;81.11
59435;BME280;45241;49.768;8.636;2023-03-25T00:14:55;99408.13;;;12.17;84.77
59435;BME280;45241;49.768;8.636;2023-03-25T00:17:23;99402.94;;;12.58;84.91
59435;BME280;45241;49.768;8.636;2023-03-25T00:19:58;99402.84;;;12.65;85.52
59435;BME280;45241;49.768;8.636;2023-03-25T00:22:30;99401.72;;;12.73;85.31
59435;BME280;45241;49.768;8.636;2023-03-25T00:24:55;99401.88;;;12.78;84.54
59435;BME280;45241;49.768;8.636;2023-03-25T00:27:20;99408.22;;;12.65;83.64
59435;BME280;45241;49.768;8.636;2023-03-25T00:29:46;99413.91;;;12.57;84.08
59435;BME280;45241;49.768;8.636;2023-03-25T00:32:13;99418.38;;;12.63;83.57
59435;BME280;45241;49.768;8.636;2023-03-25T00:34:39;99424.06;;;12.55;83.44
59435;BME280;45241;49.768;8.636;2023-03-25T00:37:12;99423.53;;;12.46;83.50
59435;BME280;45241;49.768;8.636;2023-03-25T00:39:38;99417.34;;;12.46;83.03
59435;BME280;45241;49.768;8.636;2023-03-25T00:42:03;99416.28;;;12.65;81.52
59435;BME280;45241;49.768;8.636;2023-03-25T00:44:29;99408.19;;;12.28;82.54
59435;BME280;45241;49.768;8.636;2023-03-25T00:46:55;99410.84;;;12.53;80.50
59435;BME280;45241;49.768;8.636;2023-03-25T00:49:20;99412.28;;;12.56;80.10
59435;BME280;45241;49.768;8.636;2023-03-25T00:51:50;99403.00;;;12.52;77.29
59435;BME280;45241;49.768;8.636;2023-03-25T00:54:16;99402.25;;;12.45;76.77
59435;BME280;45241;49.768;8.636;2023-03-25T00:56:42;99394.94;;;12.33;74.91
59435;BME280;45241;49.768;8.636;2023-03-25T00:59:07;99393.75;;;12.48;73.70
59435;BME280;45241;49.768;8.636;2023-03-25T01:01:33;99406.66;;;12.39;73.30
59435;BME280;45241;49.768;8.636;2023-03-25T01:04:03;99408.38;;;12.33;73.04
59435;BME280;45241;49.768;8.636;2023-03-25T01:06:32;99400.59;;;12.25;73.29
59435;BME280;45241;49.768;8.636;2023-03-25T01:09:00;99396.50;;;12.23;74.17
59435;BME280;45241;49.768;8.636;2023-03-25T01:11:29;99399.53;;;12.26;73.81
59435;BME280;45241;49.768;8.636;2023-03-25T01:13:56;99395.06;;;12.20;74.04
59435;BME280;45241;49.768;8.636;2023-03-25T01:16:24;99396.56;;;12.35;73.29
59435;BME280;45241;49.768;8.636;2023-03-25T01:18:49;99409.47;;;12.26;72.81
59435;BME280;45241;49.768;8.636;2023-03-25T01:21:15;99385.75;;;12.41;73.26
59435;BME280;45241;49.768;8.636;2023-03-25T01:23:40;99386.41;;;12.55;72.89
59435;BME280;45241;49.768;8.636;2023-03-25T01:26:06;99384.03;;;12.47;73.00
59435;BME280;45241;49.768;8.636;2023-03-25T01:28:31;99383.50;;;12.38;72.92
59435;BME280;45241;49.768;8.636;2023-03-25T01:31:05;99379.94;;;12.44;73.42
59435;BME280;45241;49.768;8.636;2023-03-25T01:33:30;99374.50;;;12.32;72.95
59435;BME280;45241;49.768;8.636;2023-03-25T01:35:56;99367.41;;;12.56;72.64
59435;BME280;45241;49.768;8.636;2023-03-25T01:38:22;99358.56;;;12.49;73.05
59435;BME280;45241;49.768;8.636;2023-03-25T01:40:49;99365.06;;;12.42;72.49
59435;BME280;45241;49.768;8.636;2023-03-25T01:43:15;99357.81;;;12.42;72.10
59435;BME280;45241;49.768;8.636;2023-03-25T01:45:40;99365.22;;;12.47;72.21
59435;BME280;45241;49.768;8.636;2023-03-25T01:50:41;99355.72;;;12.26;72.21
59435;BME280;45241;49.768;8.636;2023-03-25T01:53:07;99361.03;;;12.14;73.14
59435;BME280;45241;49.768;8.636;2023-03-25T01:55:34;99352.81;;;12.27;73.53
59435;BME280;45241;49.768;8.636;2023-03-25T01:58:03;99354.72;;;12.02;75.51
59435;BME280;45241;49.768;8.636;2023-03-25T02:00:32;99348.03;;;12.11;75.51
59435;BME280;45241;49.768;8.636;2023-03-25T02:02:58;99347.22;;;12.11;76.97
59435;BME280;45241;49.768;8.636;2023-03-25T02:05:53;99359.47;;;12.07;79.70
59435;BME280;45241;49.768;8.636;2023-03-25T02:08:22;99361.47;;;11.93;83.35
59435;BME280;45241;49.768;8.636;2023-03-25T02:10:48;99350.38;;;11.83;86.83
59435;BME280;45241;49.768;8.636;2023-03-25T02:13:14;99354.16;;;11.50;89.78
59435;BME280;45241;49.768;8.636;2023-03-25T02:18:39;99362.31;;;11.37;92.43
59435;BME280;45241;49.768;8.636;2023-03-25T02:24:20;99351.13;;;11.08;92.32
59435;BME280;45241;49.768;8.636;2023-03-25T02:30:13;99344.28;;;11.12;90.17
59435;BME280;45241;49.768;8.636;2023-03-25T02:32:58;99338.84;;;10.94;89.56
59435;BME280;45241;49.768;8.636;2023-03-25T02:41:10;99349.34;;;10.96;87.29
59435;BME280;45241;49.768;8.636;2023-03-25T02:43:53;99352.56;;;11.11;87.65
59435;BME280;45241;49.768;8.636;2023-03-25T02:46:22;99372.50;;;10.90;87.08
59435;BME280;45241;49.768;8.636;2023-03-25T02:51:37;99373.34;;;10.84;86.81
59435;BME280;45241;49.768;8.636;2023-03-25T02:54:08;99374.88;;;10.67;86.49
59435;BME280;45241;49.768;8.636;2023-03-25T02:56:37;99376.03;;;10.84;85.07
59435;BME280;45241;49.768;8.636;2023-03-25T02:59:03;99375.84;;;10.72;84.93
59435;BME280;45241;49.768;8.636;2023-03-25T03:01:30;99383.69;;;10.80;84.55
59435;BME280;45241;49.768;8.636;2023-03-25T03:03:58;99384.72;;;10.73;84.63
59435;BME280;45241;49.768;8.636;2023-03-25T03:06:24;99395.66;;;10.78;84.51
59435;BME280;45241;49.768;8.636;2023-03-25T03:11:27;99382.03;;;10.73;83.97
59435;BME280;45241;49.768;8.636;2023-03-25T03:22:45;99381.28;;;10.59;84.94
59435;BME280;45241;49.768;8.636;2023-03-25T03:25:33;99385.03;;;10.51;85.30
59435;BME280;45241;49.768;8.636;2023-03-25T03:31:22;99367.47;;;10.62;83.86
59435;BME280;45241;49.768;8.636;2023-03-25T03:33:53;99372.19;;;10.67;83.42
59435;BME280;45241;49.768;8.636;2023-03-25T03:36:26;99380.25;;;10.60;83.00
59435;BME280;45241;49.768;8.636;2023-03-25T03:39:08;99381.47;;;10.64;83.01
59435;BME280;45241;49.768;8.636;2023-03-25T03:41:37;99369.72;;;10.65;83.15
59435;BME280;45241;49.768;8.636;2023-03-25T03:44:08;99377.75;;;10.65;82.84
59435;BME280;45241;49.768;8.636;2023-03-25T03:49:23;99384.31;;;10.76;82.12
59435;BME280;45241;49.768;8.636;2023-03-25T03:52:09;99381.88;;;10.68;81.37
59435;BME280;45241;49.768;8.636;2023-03-25T03:54:43;99392.75;;;10.79;81.04
59435;BME280;45241;49.768;8.636;2023-03-25T03:57:23;99397.13;;;10.67;81.38
59435;BME280;45241;49.768;8.636;2023-03-25T04:00:07;99380.00;;;10.75;81.15
59435;BME280;45241;49.768;8.636;2023-03-25T04:02:52;99375.34;;;10.95;80.01
59435;BME280;45241;49.768;8.636;2023-03-25T04:05:21;99378.31;;;10.80;80.92
59435;BME280;45241;49.768;8.636;2023-03-25T04:07:52;99377.84;;;10.90;80.48
59435;BME280;45241;49.768;8.636;2023-03-25T04:10:26;99377.66;;;10.85;79.21
59435;BME280;45241;49.768;8.636;2023-03-25T04:12:59;99373.78;;;10.81;79.88
59435;BME280;45241;49.768;8.636;2023-03-25T04:15:26;99372.13;;;10.80;79.52
59435;BME280;45241;49.768;8.636;2023-03-25T04:17:51;99381.97;;;10.86;79.70
59435;BME280;45241;49.768;8.636;2023-03-25T04:20:22;99386.75;;;10.84;79.80
59435;BME280;45241;49.768;8.636;2023-03-25T04:22:50;99387.34;;;10.86;79.43
59435;BME280;45241;49.768;8.636;2023-03-25T04:25:17;99386.34;;;10.87;78.74
59435;BME280;45241;49.768;8.636;2023-03-25T04:27:42;99388.50;;;11.03;78.87
59435;BME280;45241;49.768;8.636;2023-03-25T04:30:10;99395.75;;;11.03;79.56
59435;BME280;45241;49.768;8.636;2023-03-25T04:32:35;99391.47;;;10.89;78.78
59435;BME280;45241;49.768;8.636;2023-03-25T04:35:01;99403.03;;;10.82;79.26
59435;BME280;45241;49.768;8.636;2023-03-25T04:37:27;99414.03;;;10.74;80.05
59435;BME280;45241;49.768;8.636;2023-03-25T04:39:53;99402.44;;;10.87;79.14
59435;BME280;45241;49.768;8.636;2023-03-25T04:42:20;99399.69;;;11.00;78.74
59435;BME280;45241;49.768;8.636;2023-03-25T04:44:50;99409.59;;;10.93;78.70
59435;BME280;45241;49.768;8.636;2023-03-25T04:47:23;99398.88;;;10.93;79.05
59435;BME280;45241;49.768;8.636;2023-03-25T04:49:49;99411.47;;;10.86;78.31
59435;BME280;45241;49.768;8.636;2023-03-25T04:52:14;99415.78;;;10.94;78.59
59435;BME280;45241;49.768;8.636;2023-03-25T04:54:40;99414.38;;;10.91;78.50
59435;BME280;45241;49.768;8.636;2023-03-25T04:57:06;99418.28;;;10.89;79.60
59435;BME280;45241;49.768;8.636;2023-03-25T04:59:33;99418.75;;;10.79;79.40
59435;BME280;45241;49.768;8.636;2023-03-25T05:01:58;99412.34;;;10.87;79.55
59435;BME280;45241;49.768;8.636;2023-03-25T05:04:26;99415.41;;;10.90;77.93
59435;BME280;45241;49.768;8.636;2023-03-25T05:06:52;99417.69;;;10.87;78.50
59435;BME280;45241;49.768;8.636;2023-03-25T05:09:19;99420.97;;;10.89;78.36
59435;BME280;45241;49.768;8.636;2023-03-25T05:11:46;99405.97;;;10.74;79.13
59435;BME280;45241;49.768;8.636;2023-03-25T05:14:14;99417.25;;;10.90;78.63
59435;BME280;45241;49.768;8.636;2023-03-25T05:16:40;99411.06;;;10.89;78.98
59435;BME280;45241;49.768;8.636;2023-03-25T05:19:06;99401.56;;;10.93;78.72
59435;BME280;45241;49.768;8.636;2023-03-25T05:21:35;99416.38;;;11.02;78.99
59435;BME280;45241;49.768;8.636;2023-03-25T05:24:06;99411.69;;;10.91;79.37
59435;BME280;45241;49.768;8.636;2023-03-25T05:26:33;99405.59;;;11.09;78.87
59435;BME280;45241;49.768;8.636;2023-03-25T05:29:06;99399.25;;;10.97;79.04
59435;BME280;45241;49.768;8.636;2023-03-25T05:31:32;99412.34;;;10.87;79.61
59435;BME280;45241;49.768;8.636;2023-03-25T05:33:58;99409.44;;;10.88;80.04
59435;BME280;45241;49.768;8.636;2023-03-25T05:36:23;99417.81;;;11.05;79.76
59435;BME280;45241;49.768;8.636;2023-03-25T05:38:52;99418.69;;;10.85;80.28
59435;BME280;45241;49.768;8.636;2023-03-25T05:41:19;99418.50;;;10.87;79.97
59435;BME280;45241;49.768;8.636;2023-03-25T05:43:45;99416.53;;;11.07;79.24
59435;BME280;45241;49.768;8.636;2023-03-25T05:46:12;99418.56;;;11.12;79.13
59435;BME280;45241;49.768;8.636;2023-03-25T05:48:38;99427.38;;;10.88;80.21
59435;BME280;45241;49.768;8.636;2023-03-25T05:51:17;99443.09;;;10.77;81.89
59435;BME280;45241;49.768;8.636;2023-03-25T05:53:47;99434.81;;;10.79;83.88
59435;BME280;45241;49.768;8.636;2023-03-25T05:56:14;99434.41;;;10.82;84.24
59435;BME280;45241;49.768;8.636;2023-03-25T05:58:42;99438.97;;;10.75;83.70
59435;BME280;45241;49.768;8.636;2023-03-25T06:01:09;99434.84;;;10.72;84.51
59435;BME280;45241;49.768;8.636;2023-03-25T06:03:35;99443.56;;;10.61;85.05
59435;BME280;45241;49.768;8.636;2023-03-25T06:06:00;99435.25;;;10.76;85.17
59435;BME280;45241;49.768;8.636;2023-03-25T06:08:27;99432.91;;;10.93;83.85
59435;BME280;45241;49.768;8.636;2023-03-25T06:10:54;99443.31;;;10.76;83.16
59435;BME280;45241;49.768;8.636;2023-03-25T06:13:22;99444.28;;;10.88;82.63
59435;BME280;45241;49.768;8.636;2023-03-25T06:15:47;99453.31;;;10.94;82.53
59435;BME280;45241;49.768;8.636;2023-03-25T06:18:13;99463.56;;;11.10;82.34
59435;BME280;45241;49.768;8.636;2023-03-25T06:20:38;99458.09;;;10.85;80.94
59435;BME280;45241;49.768;8.636;2023-03-25T06:23:03;99470.22;;;11.01;80.40
59435;BME280;45241;49.768;8.636;2023-03-25T06:25:29;99470.63;;;10.98;80.30
59435;BME280;45241;49.768;8.636;2023-03-25T06:27:55;99474.00;;;10.87;80.99
59435;BME280;45241;49.768;8.636;2023-03-25T06:30:22;99477.31;;;10.75;81.85
59435;BME280;45241;49.768;8.636;2023-03-25T06:32:48;99486.59;;;10.73;82.20
59435;BME280;45241;49.768;8.636;2023-03-25T06:35:15;99480.63;;;10.77;82.66
59435;BME280;45241;49.768;8.636;2023-03-25T06:37:44;99482.44;;;10.83;83.00
59435;BME280;45241;49.768;8.636;2023-03-25T06:40:11;99475.97;;;11.04;82.96
59435;BME280;45241;49.768;8.636;2023-03-25T06:42:37;99474.38;;;10.90;82.08
59435;BME280;45241;49.768;8.636;2023-03-25T06:45:02;99476.38;;;11.08;82.27
59435;BME280;45241;49.768;8.636;2023-03-25T06:47:29;99476.34;;;11.14;81.67
59435;BME280;45241;49.768;8.636;2023-03-25T06:49:54;99480.47;;;11.17;82.19
59435;BME280;45241;49.768;8.636;2023-03-25T06:52:20;99467.50;;;11.07;81.74
59435;BME280;45241;49.768;8.636;2023-03-25T06:54:45;99472.81;;;11.21;81.26
59435;BME280;45241;49.768;8.636;2023-03-25T06:57:10;99470.13;;;11.21;81.44
59435;BME280;45241;49.768;8.636;2023-03-25T06:59:36;99469.88;;;11.29;81.98
59435;BME280;45241;49.768;8.636;2023-03-25T07:02:01;99471.34;;;11.25;82.03
59435;BME280;45241;49.768;8.636;2023-03-25T07:04:26;99471.50;;;11.36;81.25
59435;BME280;45241;49.768;8.636;2023-03-25T07:06:51;99462.28;;;11.26;81.29
59435;BME280;45241;49.768;8.636;2023-03-25T07:09:17;99465.38;;;11.23;81.02
59435;BME280;45241;49.768;8.636;2023-03-25T07:11:42;99465.97;;;11.25;81.31
59435;BME280;45241;49.768;8.636;2023-03-25T07:14:08;99451.69;;;11.37;81.02
59435;BME280;45241;49.768;8.636;2023-03-25T07:16:33;99460.75;;;11.43;80.61
59435;BME280;45241;49.768;8.636;2023-03-25T07:18:59;99457.63;;;11.46;80.29
59435;BME280;45241;49.768;8.636;2023-03-25T07:21:25;99463.81;;;11.47;79.82
59435;BME280;45241;49.768;8.636;2023-03-25T07:23:51;99461.03;;;11.66;79.23
59435;BME280;45241;49.768;8.636;2023-03-25T07:26:16;99457.53;;;11.66;79.58
59435;BME280;45241;49.768;8.636;2023-03-25T07:28:42;99465.59;;;11.59;78.82
59435;BME280;45241;49.768;8.636;2023-03-25T07:31:13;99438.75;;;11.59;78.97
59435;BME280;45241;49.768;8.636;2023-03-25T07:33:39;99450.50;;;11.65;78.25
59435;BME280;45241;49.768;8.636;2023-03-25T07:36:06;99457.94;;;11.63;76.62
59435;BME280;45241;49.768;8.636;2023-03-25T07:38:32;99450.22;;;11.73;76.25
59435;BME280;45241;49.768;8.636;2023-03-25T07:40:58;99455.13;;;11.83;75.98
59435;BME280;45241;49.768;8.636;2023-03-25T07:43:23;99449.97;;;11.81;75.68
59435;BME280;45241;49.768;8.636;2023-03-25T07:45:48;99447.66;;;11.85;74.98
59435;BME280;45241;49.768;8.636;2023-03-25T07:48:14;99446.34;;;11.69;75.05
59435;BME280;45241;49.768;8.636;2023-03-25T07:50:41;99441.50;;;11.78;74.82
59435;BME280;45241;49.768;8.636;2023-03-25T07:53:07;99433.53;;;11.96;74.88
59435;BME280;45241;49.768;8.636;2023-03-25T07:55:32;99441.19;;;12.17;73.49
59435;BME280;45241;49.768;8.636;2023-03-25T07:57:58;99457.09;;;12.19;71.93
59435;BME280;45241;49.768;8.636;2023-03-25T08:00:26;99438.06;;;12.20;72.58
59435;BME280;45241;49.768;8.636;2023-03-25T08:02:52;99443.69;;;12.37;71.17
59435;BME280;45241;49.768;8.636;2023-03-25T08:05:17;99456.56;;;12.28;71.03
59435;BME280;45241;49.768;8.636;2023-03-25T08:07:48;99449.47;;;12.59;70.54
59435;BME280;45241;49.768;8.636;2023-03-25T08:10:16;99455.72;;;12.53;71.50
59435;BME280;45241;49.768;8.636;2023-03-25T08:12:43;99465.13;;;12.44;70.23
59435;BME280;45241;49.768;8.636;2023-03-25T08:15:09;99473.75;;;12.27;70.46
59435;BME280;45241;49.768;8.636;2023-03-25T08:17:35;99472.28;;;12.31;70.42
59435;BME280;45241;49.768;8.636;2023-03-25T08:20:01;99473.69;;;12.34;70.87
59435;BME280;45241;49.768;8.636;2023-03-25T08:22:28;99471.66;;;12.29;70.84
59435;BME280;45241;49.768;8.636;2023-03-25T08:24:54;99471.66;;;12.29;71.49
59435;BME280;45241;49.768;8.636;2023-03-25T08:27:20;99472.19;;;12.38;71.68
59435;BME280;45241;49.768;8.636;2023-03-25T08:29:45;99459.72;;;12.25;71.08
59435;BME280;45241;49.768;8.636;2023-03-25T08:32:28;99463.59;;;12.29;71.13
59435;BME280;45241;49.768;8.636;2023-03-25T08:34:54;99473.31;;;12.30;70.96
59435;BME280;45241;49.768;8.636;2023-03-25T08:37:20;99470.25;;;12.02;72.33
59435;BME280;45241;49.768;8.636;2023-03-25T08:39:46;99465.91;;;12.01;72.69
59435;BME280;45241;49.768;8.636;2023-03-25T08:42:14;99449.50;;;12.34;72.94
59435;BME280;45241;49.768;8.636;2023-03-25T08:44:39;99453.50;;;12.25;72.02
59435;BME280;45241;49.768;8.636;2023-03-25T08:47:05;99451.03;;;12.48;72.67
59435;BME280;45241;49.768;8.636;2023-03-25T08:49:31;99440.50;;;12.47;73.81
59435;BME280;45241;49.768;8.636;2023-03-25T08:51:57;99442.59;;;12.63;71.47
59435;BME280;45241;49.768;8.636;2023-03-25T08:54:24;99440.50;;;12.65;71.25
59435;BME280;45241;49.768;8.636;2023-03-25T08:56:50;99443.13;;;12.72;72.21
59435;BME280;45241;49.768;8.636;2023-03-25T08:59:15;99442.88;;;12.73;71.87
59435;BME280;45241;49.768;8.636;2023-03-25T09:01:41;99440.63;;;12.88;72.55
59435;BME280;45241;49.768;8.636;2023-03-25T09:04:07;99439.47;;;13.03;73.03
59435;BME280;45241;49.768;8.636;2023-03-25T09:06:33;99437.34;;;12.68;73.91
59435;BME280;45241;49.768;8.636;2023-03-25T09:08:58;99434.47;;;12.70;75.28
59435;BME280;45241;49.768;8.636;2023-03-25T09:11:24;99439.06;;;12.81;76.09
59435;BME280;45241;49.768;8.636;2023-03-25T09:13:50;99436.16;;;12.82;75.71
59435;BME280;45241;49.768;8.636;2023-03-25T09:16:15;99441.25;;;12.72;75.17
59435;BME280;45241;49.768;8.636;2023-03-25T09:18:41;99445.38;;;12.56;74.39
59435;BME280;45241;49.768;8.636;2023-03-25T09:21:09;99438.72;;;12.59;74.60
59435;BME280;45241;49.768;8.636;2023-03-25T09:23:34;99446.47;;;12.49;76.01
59435;BME280;45241;49.768;8.636;2023-03-25T09:26:01;99438.16;;;12.69;76.58
59435;BME280;45241;49.768;8.636;2023-03-25T09:28:29;99429.72;;;12.65;77.05
59435;BME280;45241;49.768;8.636;2023-03-25T09:30:55;99428.25;;;12.51;75.59
59435;BME280;45241;49.768;8.636;2023-03-25T09:33:21;99425.78;;;12.68;74.95
59435;BME280;45241;49.768;8.636;2023-03-25T09:35:47;99432.41;;;12.65;73.14
59435;BME280;45241;49.768;8.636;2023-03-25T09:38:13;99425.03;;;12.79;73.61
59435;BME280;45241;49.768;8.636;2023-03-25T09:40:42;99432.78;;;12.69;73.56
59435;BME280;45241;49.768;8.636;2023-03-25T09:43:59;99429.00;;;12.76;75.24
59435;BME280;45241;49.768;8.636;2023-03-25T09:46:28;99432.25;;;12.42;76.63
59435;BME280;45241;49.768;8.636;2023-03-25T09:48:54;99422.28;;;12.49;78.31
59435;BME280;45241;49.768;8.636;2023-03-25T09:51:26;99428.25;;;12.51;79.68
59435;BME280;45241;49.768;8.636;2023-03-25T09:54:07;99414.94;;;12.74;79.23
59435;BME280;45241;49.768;8.636;2023-03-25T09:56:40;99426.72;;;12.37;79.82
59435;BME280;45241;49.768;8.636;2023-03-25T09:59:12;99439.94;;;12.38;82.30
59435;BME280;45241;49.768;8.636;2023-03-25T10:07:30;99436.66;;;12.36;90.21
59435;BME280;45241;49.768;8.636;2023-03-25T10:13:05;99430.03;;;12.94;83.32
59435;BME280;45241;49.768;8.636;2023-03-25T10:24:05;99426.56;;;13.23;75.91
59435;BME280;45241;49.768;8.636;2023-03-25T10:26:51;99420.22;;;13.17;73.89
59435;BME280;45241;49.768;8.636;2023-03-25T10:29:23;99426.06;;;13.14;75.68
59435;BME280;45241;49.768;8.636;2023-03-25T10:31:56;99429.97;;;13.00;70.67
59435;BME280;45241;49.768;8.636;2023-03-25T10:34:33;99431.97;;;12.86;71.32
59435;BME280;45241;49.768;8.636;2023-03-25T10:37:02;99412.16;;;12.81;69.58
59435;BME280;45241;49.768;8.636;2023-03-25T10:39:32;99410.28;;;12.81;68.59
59435;BME280;45241;49.768;8.636;2023-03-25T10:42:19;99395.06;;;12.94;69.26
59435;BME280;45241;49.768;8.636;2023-03-25T10:44:48;99393.00;;;12.96;69.01
59435;BME280;45241;49.768;8.636;2023-03-25T10:47:17;99399.50;;;13.18;70.92
59435;BME280;45241;49.768;8.636;2023-03-25T10:49:46;99415.00;;;13.23;68.54
59435;BME280;45241;49.768;8.636;2023-03-25T10:52:12;99431.19;;;13.34;67.55
59435;BME280;45241;49.768;8.636;2023-03-25T10:54:41;99432.53;;;13.55;68.31
59435;BME280;45241;49.768;8.636;2023-03-25T10:57:10;99451.63;;;13.05;70.76
59435;BME280;45241;49.768;8.636;2023-03-25T10:59:43;99441.25;;;13.09;71.55
59435;BME280;45241;49.768;8.636;2023-03-25T11:02:11;99450.75;;;12.93;73.14
59435;BME280;45241;49.768;8.636;2023-03-25T11:04:40;99448.72;;;12.70;73.46
59435;BME280;45241;49.768;8.636;2023-03-25T11:07:26;99441.91;;;12.49;73.96
59435;BME280;45241;49.768;8.636;2023-03-25T11:10:07;99460.50;;;12.51;75.97
59435;BME280;45241;49.768;8.636;2023-03-25T11:12:33;99468.22;;;12.22;75.63
59435;BME280;45241;49.768;8.636;2023-03-25T11:14:58;99486.44;;;12.20;78.77
59435;BME280;45241;49.768;8.636;2023-03-25T11:17:25;99489.88;;;12.02;81.08
59435;BME280;45241;49.768;8.636;2023-03-25T11:19:58;99501.88;;;12.50;84.22
59435;BME280;45241;49.768;8.636;2023-03-25T11:22:29;99478.13;;;12.47;83.50
59435;BME280;45241;49.768;8.636;2023-03-25T11:25:02;99474.13;;;12.56;81.44
59435;BME280;45241;49.768;8.636;2023-03-25T11:27:29;99490.44;;;12.54;79.72
59435;BME280;45241;49.768;8.636;2023-03-25T11:30:00;99489.78;;;12.59;77.06
59435;BME280;45241;49.768;8.636;2023-03-25T11:32:35;99476.84;;;12.68;76.11
59435;BME280;45241;49.768;8.636;2023-03-25T11:35:07;99465.59;;;13.14;76.54
59435;BME280;45241;49.768;8.636;2023-03-25T11:37:47;99464.56;;;13.45;76.83
59435;BME280;45241;49.768;8.636;2023-03-25T11:40:16;99457.00;;;13.54;74.01
59435;BME280;45241;49.768;8.636;2023-03-25T11:42:51;99461.81;;;13.63;73.48
59435;BME280;45241;49.768;8.636;2023-03-25T11:45:21;99461.94;;;13.68;72.48
59435;BME280;45241;49.768;8.636;2023-03-25T11:47:47;99446.09;;;14.14;73.13
59435;BME280;45241;49.768;8.636;2023-03-25T11:50:24;99459.69;;;14.07;70.05
59435;BME280;45241;49.768;8.636;2023-03-25T11:52:54;99451.13;;;14.22;65.78
59435;BME280;45241;49.768;8.636;2023-03-25T11:55:29;99464.16;;;14.36;64.15
59435;BME280;45241;49.768;8.636;2023-03-25T11:57:57;99462.25;;;13.90;63.02
59435;BME280;45241;49.768;8.636;2023-03-25T12:00:40;99447.75;;;14.26;63.37
59435;BME280;45241;49.768;8.636;2023-03-25T12:03:19;99449.19;;;14.29;62.40
59435;BME280;45241;49.768;8.636;2023-03-25T12:06:04;99451.97;;;14.34;62.83
59435;BME280;45241;49.768;8.636;2023-03-25T12:08:41;99450.09;;;14.58;63.09
59435;BME280;45241;49.768;8.636;2023-03-25T12:11:12;99446.72;;;14.39;62.68
59435;BME280;45241;49.768;8.636;2023-03-25T12:14:11;99464.84;;;14.20;62.51
59435;BME280;45241;49.768;8.636;2023-03-25T12:17:04;99442.00;;;13.99;62.35
59435;BME280;45241;49.768;8.636;2023-03-25T12:25:29;99419.84;;;14.56;60.34
59435;BME280;45241;49.768;8.636;2023-03-25T12:28:35;99417.16;;;14.56;60.41
59435;BME280;45241;49.768;8.636;2023-03-25T12:31:15;99438.22;;;14.24;58.50
59435;BME280;45241;49.768;8.636;2023-03-25T12:39:53;99415.47;;;14.78;58.55
59435;BME280;45241;49.768;8.636;2023-03-25T12:45:48;99417.22;;;15.70;56.26
59435;BME280;45241;49.768;8.636;2023-03-25T12:51:10;99413.75;;;15.29;54.06
59435;BME280;45241;49.768;8.636;2023-03-25T12:53:59;99408.97;;;15.31;54.76
59435;BME280;45241;49.768;8.636;2023-03-25T12:56:57;99420.88;;;14.78;54.52
59435;BME280;45241;49.768;8.636;2023-03-25T12:59:52;99451.16;;;14.45;55.70
59435;BME280;45241;49.768;8.636;2023-03-25T13:05:16;99457.28;;;14.29;54.21
59435;BME280;45241;49.768;8.636;2023-03-25T13:07:47;99451.72;;;14.24;54.80
59435;BME280;45241;49.768;8.636;2023-03-25T13:10:21;99446.72;;;14.39;55.02
59435;BME280;45241;49.768;8.636;2023-03-25T13:12:56;99426.31;;;14.43;53.53
59435;BME280;45241;49.768;8.636;2023-03-25T13:15:25;99433.94;;;14.34;54.05
59435;BME280;45241;49.768;8.636;2023-03-25T13:20:42;99426.38;;;14.72;53.79
59435;BME280;45241;49.768;8.636;2023-03-25T13:23:13;99421.09;;;14.77;54.57
59435;BME280;45241;49.768;8.636;2023-03-25T13:28:15;99419.25;;;14.77;54.77
59435;BME280;45241;49.768;8.636;2023-03-25T13:30:42;99427.81;;;14.62;55.03
59435;BME280;45241;49.768;8.636;2023-03-25T13:33:16;99416.38;;;14.84;55.02
59435;BME280;45241;49.768;8.636;2023-03-25T13:35:46;99409.63;;;14.70;56.73
59435;BME280;45241;49.768;8.636;2023-03-25T13:38:19;99396.97;;;14.70;57.05
59435;BME280;45241;49.768;8.636;2023-03-25T13:41:42;99408.91;;;14.74;57.13
59435;BME280;45241;49.768;8.636;2023-03-25T13:46:13;99401.34;;;14.88;56.98
59435;BME280;45241;49.768;8.636;2023-03-25T13:49:05;99403.13;;;15.22;55.66
59435;BME280;45241;49.768;8.636;2023-03-25T13:51:31;99405.69;;;15.91;51.21
59435;BME280;45241;49.768;8.636;2023-03-25T13:54:22;99401.97;;;15.64;48.35
59435;BME280;45241;49.768;8.636;2023-03-25T13:59:44;99398.00;;;15.38;48.93
59435;BME280;45241;49.768;8.636;2023-03-25T14:02:31;99405.22;;;15.49;50.17
59435;BME280;45241;49.768;8.636;2023-03-25T14:05:17;99416.63;;;16.18;51.64
59435;BME280;45241;49.768;8.636;2023-03-25T14:08:14;99422.13;;;16.23;51.46
59435;BME280;45241;49.768;8.636;2023-03-25T14:11:10;99417.69;;;16.17;50.31
59435;BME280;45241;49.768;8.636;2023-03-25T14:13:46;99412.56;;;15.99;49.15
59435;BME280;45241;49.768;8.636;2023-03-25T14:16:18;99411.34;;;16.45;49.20
59435;BME280;45241;49.768;8.636;2023-03-25T14:18:52;99420.34;;;16.89;48.61
59435;BME280;45241;49.768;8.636;2023-03-25T14:24:26;99432.13;;;16.78;45.73
59435;BME280;45241;49.768;8.636;2023-03-25T14:26:56;99419.19;;;17.07;44.96
59435;BME280;45241;49.768;8.636;2023-03-25T14:29:45;99422.41;;;17.53;44.55
59435;BME280;45241;49.768;8.636;2023-03-25T14:34:40;99446.09;;;16.92;45.11
59435;BME280;45241;49.768;8.636;2023-03-25T14:44:37;99454.91;;;16.82;44.79
59435;BME280;45241;49.768;8.636;2023-03-25T14:49:54;99421.78;;;16.36;45.61
59435;BME280;45241;49.768;8.636;2023-03-25T14:52:29;99430.31;;;16.67;45.53
59435;BME280;45241;49.768;8.636;2023-03-25T14:54:55;99427.25;;;16.41;45.93
59435;BME280;45241;49.768;8.636;2023-03-25T14:57:24;99420.78;;;16.81;46.55